Clementon, New Jersey
Current Conditions -  °F | °C
As of 6:54 PM on Monday 22 Dec 2014 (Local Time) from KVAY Reporting Station
Light Rain Light Rain  
Wind Chill: 35°   Ceiling: 8000
Heat Index: 40°   Visibility: 4mi
Dew Point: 36°   Wind: 7mph
Humidity: 86%   Direction: 20°NNE
Pressure: 30.19"   Gusts: NA
Location:  39.81°N, 74.99°W
Report Text: KVAY 222354Z AUTO 02006KT 4SM -RA BR OVC080 04/02 A3019 RMK AO2 SLP224 P0000 60000 T00440022 10072 20044 55006
Loading
Personal Weather Stations






























Interactive Weather Map New forecast layout! Learn more

10-Day Weather Forecast

Advertisements
Track Severe Weather on mobile